createdAt,value
2019-05-01T00:04:12.883Z,1067.37
2019-05-01T00:09:17.515Z,1002.67
2019-05-01T00:14:21.851Z,1012.37
2019-05-01T00:19:25.651Z,811.87
2019-05-01T00:24:29.392Z,951.60
2019-05-01T00:29:33.188Z,927.00
2019-05-01T00:34:37.150Z,1106.07
2019-05-01T00:39:41.147Z,1074.87
2019-05-01T00:44:45.258Z,1027.97
2019-05-01T00:49:49.206Z,1055.47
2019-05-01T00:54:55.447Z,1231.40
2019-05-01T01:00:18.575Z,1297.23
2019-05-01T01:05:22.671Z,1132.50
2019-05-01T01:10:26.638Z,1696.80
2019-05-01T01:15:30.650Z,1734.80
2019-05-01T01:20:34.606Z,1424.27
2019-05-01T01:25:38.694Z,1271.60
2019-05-01T01:30:55.130Z,1221.40
2019-05-01T01:35:48.873Z,1004.07
2019-05-01T01:40:53.091Z,1008.37
2019-05-01T01:45:57.698Z,1045.60
2019-05-01T01:51:01.712Z,1059.47
2019-05-01T01:56:06.373Z,1176.10
2019-05-01T02:01:24.198Z,1147.00
2019-05-01T02:06:28.029Z,1026.40
2019-05-01T02:11:32.405Z,1066.80
2019-05-01T02:16:36.370Z,988.70
2019-05-01T02:21:40.301Z,1032.50
2019-05-01T02:26:47.184Z,1051.60
2019-05-01T02:31:54.051Z,1004.77
2019-05-01T02:37:00.041Z,1010.47
2019-05-01T02:42:04.893Z,983.37
2019-05-01T02:47:12.352Z,1073.53
2019-05-01T02:52:19.879Z,1031.70
2019-05-01T02:57:26.020Z,1004.97
2019-05-01T03:02:32.051Z,1005.37
2019-05-01T03:07:38.531Z,1250.97
2019-05-01T03:12:45.367Z,1358.73
2019-05-01T03:17:59.234Z,1325.87
2019-05-01T03:23:37.832Z,1271.80
2019-05-01T03:28:42.131Z,1268.07
2019-05-01T03:33:46.729Z,1490.53
2019-05-01T03:38:51.306Z,1493.63
2019-05-01T03:43:55.877Z,1596.27
2019-05-01T03:49:00.879Z,1601.57
2019-05-01T03:54:05.275Z,1573.57
2019-05-01T03:59:10.035Z,1847.60
2019-05-01T04:04:19.450Z,1749.83
2019-05-01T04:09:23.597Z,1748.73
2019-05-01T04:14:27.783Z,1820.70
2019-05-01T04:19:31.920Z,1996.17
2019-05-01T04:24:37.015Z,1996.10
2019-05-01T04:29:57.234Z,1999.90
2019-05-01T04:35:24.768Z,1999.90
2019-05-01T04:40:29.277Z,1874.37
2019-05-01T04:45:34.234Z,1954.23
2019-05-01T04:50:38.312Z,1999.90
2019-05-01T04:55:44.085Z,1999.90
2019-05-01T05:00:48.789Z,1999.90
2019-05-01T05:05:53.049Z,1999.90
2019-05-01T05:10:58.618Z,1938.33
2019-05-01T05:16:23.829Z,1864.03
2019-05-01T05:21:28.078Z,1999.90
2019-05-01T05:26:31.965Z,1884.90
2019-05-01T05:31:37.048Z,1999.90
2019-05-01T05:36:42.741Z,1855.73
2019-05-01T05:41:48.457Z,1878.43
2019-05-01T05:46:52.320Z,1999.90
2019-05-01T05:52:24.073Z,1895.83
2019-05-01T05:57:38.978Z,1953.17
2019-05-01T06:03:07.687Z,1999.90
2019-05-01T06:08:20.079Z,1999.90
2019-05-01T06:13:43.288Z,1999.90
2019-05-01T06:19:09.665Z,1999.90
2019-05-01T06:24:21.780Z,1999.90
2019-05-01T06:29:26.384Z,1757.67
2019-05-01T06:34:30.697Z,1752.60
2019-05-01T06:39:42.726Z,1999.37
2019-05-01T06:44:52.941Z,1999.90
2019-05-01T06:50:22.890Z,1999.90
2019-05-01T06:55:28.949Z,1999.90
2019-05-01T07:00:32.995Z,1804.60
2019-05-01T07:05:37.546Z,1957.87
2019-05-01T07:10:44.293Z,1999.90
2019-05-01T07:15:47.718Z,1984.90
2019-05-01T07:20:53.533Z,1663.23
2019-05-01T07:25:57.736Z,1989.23
2019-05-01T07:31:08.608Z,1717.13
2019-05-01T07:36:15.216Z,1641.97
2019-05-01T07:41:18.986Z,1968.40
2019-05-01T07:46:48.919Z,1999.90
2019-05-01T07:51:53.339Z,1999.90
2019-05-01T07:56:58.793Z,1618.97
2019-05-01T08:02:07.442Z,1995.57
2019-05-01T08:07:11.573Z,1966.23
2019-05-01T08:12:18.858Z,1841.97
2019-05-01T08:17:22.696Z,1999.90
2019-05-01T08:22:32.161Z,1931.87
2019-05-01T08:27:56.343Z,1999.90
2019-05-01T08:33:23.078Z,1999.90
2019-05-01T08:38:29.870Z,1881.93
2019-05-01T08:43:33.380Z,1795.77
2019-05-01T08:49:06.743Z,1999.90
2019-05-01T08:54:10.096Z,1999.90
2019-05-01T08:59:14.671Z,1861.53
2019-05-01T09:04:18.917Z,1999.90
2019-05-01T09:09:23.786Z,1999.90
2019-05-01T09:14:29.853Z,1818.63
2019-05-01T09:19:33.760Z,1999.90
2019-05-01T09:24:37.884Z,1999.90
2019-05-01T09:29:46.932Z,1677.90
2019-05-01T09:34:50.690Z,1736.03
2019-05-01T09:39:54.689Z,1918.37
2019-05-01T09:44:58.489Z,1899.27
2019-05-01T09:50:02.680Z,933.97
2019-05-01T09:55:24.940Z,1005.93
2019-05-01T10:00:31.138Z,1459.67
2019-05-01T10:05:38.007Z,1295.67
2019-05-01T10:10:40.707Z,1091.33
2019-05-01T10:15:44.597Z,1177.47
2019-05-01T10:20:48.927Z,1395.33
2019-05-01T10:25:55.801Z,1175.77
2019-05-01T10:31:11.894Z,1999.90
2019-05-01T10:36:37.021Z,1255.57
2019-05-01T10:41:46.145Z,1187.70
2019-05-01T10:46:47.623Z,1507.40
2019-05-01T10:51:51.421Z,1577.80
2019-05-01T10:56:58.904Z,1916.90
2019-05-01T11:02:02.422Z,1999.90
2019-05-01T11:07:06.209Z,1087.83
2019-05-01T11:12:10.369Z,1166.63
2019-05-01T11:17:14.177Z,1923.33
2019-05-01T11:22:18.626Z,1508.80
2019-05-01T11:27:24.824Z,1436.83
2019-05-01T11:32:50.566Z,1571.00
2019-05-01T11:38:06.398Z,1999.90
2019-05-01T11:43:12.302Z,1249.73
2019-05-01T11:48:16.183Z,1592.70
2019-05-01T11:53:22.322Z,1465.37
2019-05-01T11:58:26.190Z,1237.63
2019-05-01T12:03:29.878Z,1261.70
2019-05-01T12:08:34.141Z,1999.90
2019-05-01T12:13:43.954Z,1607.57
2019-05-01T12:18:43.481Z,1387.73
2019-05-01T12:23:47.181Z,1668.53
2019-05-01T12:28:51.035Z,1707.90
2019-05-01T12:33:55.049Z,1705.63
2019-05-01T12:38:58.960Z,1999.90
2019-05-01T12:44:03.012Z,1513.43
2019-05-01T12:49:06.833Z,1999.90
2019-05-01T12:54:28.790Z,1977.63
2019-05-01T12:59:32.913Z,1586.43
2019-05-01T13:04:37.054Z,1570.63
2019-05-01T13:09:40.845Z,1999.90
2019-05-01T13:14:44.641Z,1666.87
2019-05-01T13:19:48.406Z,1546.73
2019-05-01T13:24:52.570Z,1663.30
2019-05-01T13:30:02.171Z,1999.90
2019-05-01T13:35:06.561Z,1999.90
2019-05-01T13:40:10.850Z,1644.47
2019-05-01T13:45:15.792Z,1670.87
2019-05-01T13:50:20.723Z,1713.40
2019-05-01T13:55:26.105Z,1414.70
2019-05-01T14:00:30.939Z,1437.53
2019-05-01T14:05:35.644Z,1999.90
2019-05-01T14:10:41.061Z,1999.90
2019-05-01T14:15:45.010Z,1958.30
2019-05-01T14:21:05.745Z,1999.90
2019-05-01T14:26:11.328Z,1999.90
2019-05-01T14:31:15.580Z,1999.90
2019-05-01T14:36:20.300Z,1595.23
2019-05-01T14:41:25.714Z,1857.97
2019-05-01T14:46:30.241Z,1531.83
2019-05-01T14:51:34.871Z,1999.90
2019-05-01T14:56:38.976Z,1999.90
2019-05-01T15:01:43.496Z,1652.30
2019-05-01T15:06:48.114Z,1904.10
2019-05-01T15:11:53.220Z,1999.90
2019-05-01T15:17:04.797Z,1467.93
2019-05-01T15:22:10.201Z,1999.90
2019-05-01T15:27:14.862Z,1487.07
2019-05-01T15:32:20.221Z,1355.70
2019-05-01T15:37:24.319Z,1614.13
2019-05-01T15:42:51.463Z,1512.47
2019-05-01T15:47:55.549Z,1999.90
2019-05-01T15:52:59.293Z,1999.90
2019-05-01T15:58:03.342Z,1999.90
2019-05-01T16:03:07.043Z,1999.90
2019-05-01T16:08:10.760Z,1970.30
2019-05-01T16:13:14.756Z,1999.90
2019-05-01T16:18:19.204Z,1999.90
2019-05-01T16:23:25.125Z,1812.60
2019-05-01T16:28:29.280Z,1999.90
2019-05-01T16:33:33.348Z,1999.90
2019-05-01T16:38:49.543Z,1999.90
2019-05-01T16:43:53.783Z,1999.90
2019-05-01T16:48:58.523Z,1999.90
2019-05-01T16:54:02.719Z,1999.90
2019-05-01T16:59:09.085Z,1999.90
2019-05-01T17:04:38.246Z,1999.90
2019-05-01T17:09:58.077Z,1999.90
2019-05-01T17:15:02.947Z,1999.90
2019-05-01T17:20:32.614Z,1999.90
2019-05-01T17:25:37.502Z,1280.93
2019-05-01T17:30:50.867Z,1300.93
2019-05-01T17:35:55.692Z,1748.87
2019-05-01T17:40:59.670Z,1254.20
2019-05-01T17:46:05.837Z,1999.90
2019-05-01T17:51:09.575Z,1999.90
2019-05-01T17:56:15.641Z,1908.73
2019-05-01T18:01:34.472Z,1999.90
2019-05-01T18:06:41.895Z,1999.90
2019-05-01T18:11:47.464Z,1999.90
2019-05-01T18:16:55.089Z,1999.90
2019-05-01T18:22:09.219Z,1999.90
2019-05-01T18:27:38.518Z,1539.40
2019-05-01T18:32:47.581Z,1999.90
2019-05-01T18:38:11.496Z,1569.87
2019-05-01T18:43:14.566Z,1508.90
2019-05-01T18:48:18.990Z,1228.47
2019-05-01T18:53:22.768Z,1525.53
2019-05-01T18:58:26.705Z,1490.97
2019-05-01T19:03:30.646Z,1310.47
2019-05-01T19:08:35.132Z,1447.17
2019-05-01T19:13:39.029Z,1254.07
2019-05-01T19:18:43.086Z,1505.77
2019-05-01T19:23:47.897Z,1999.90
2019-05-01T19:28:52.417Z,1999.90
2019-05-01T19:33:56.551Z,1912.23
2019-05-01T19:39:00.452Z,1178.17
2019-05-01T19:44:04.964Z,1486.33
2019-05-01T19:49:09.015Z,1347.83
2019-05-01T19:54:14.005Z,1999.90
2019-05-01T19:59:17.845Z,1999.90
2019-05-01T20:04:21.676Z,1442.13
2019-05-01T20:09:26.241Z,1958.17
2019-05-01T20:14:30.063Z,1036.40
2019-05-01T20:19:33.927Z,1140.70
2019-05-01T20:24:39.920Z,1095.03
2019-05-01T20:29:44.793Z,1058.93
2019-05-01T20:34:52.692Z,1207.67
2019-05-01T20:39:55.600Z,1176.63
2019-05-01T20:45:05.477Z,1040.83
2019-05-01T20:50:05.529Z,969.33
2019-05-01T20:55:10.115Z,1052.50
2019-05-01T21:00:16.518Z,900.30
2019-05-01T21:05:26.249Z,966.40
2019-05-01T21:10:35.776Z,1161.37
2019-05-01T21:15:40.534Z,1242.97
2019-05-01T21:20:44.727Z,1072.63
2019-05-01T21:25:49.299Z,1394.73
2019-05-01T21:30:54.353Z,1126.20
2019-05-01T21:36:04.909Z,1260.17
2019-05-01T21:41:05.528Z,965.27
2019-05-01T21:46:12.447Z,926.77
2019-05-01T21:51:15.866Z,1987.90
2019-05-01T21:56:20.597Z,1011.53
2019-05-01T22:01:24.370Z,1999.90
2019-05-01T22:06:28.185Z,1149.73
2019-05-01T22:11:32.992Z,931.40
2019-05-01T22:16:37.641Z,1066.73
2019-05-01T22:21:58.531Z,1021.00
2019-05-01T22:27:06.721Z,1156.70
2019-05-01T22:32:34.117Z,1120.40
2019-05-01T22:37:38.253Z,1224.10
2019-05-01T22:42:42.098Z,894.40
2019-05-01T22:47:46.005Z,884.63
2019-05-01T22:52:51.295Z,1999.90
2019-05-01T22:57:56.531Z,889.17
2019-05-01T23:03:05.471Z,817.73
2019-05-01T23:08:07.958Z,947.83
2019-05-01T23:13:12.303Z,837.27
2019-05-01T23:18:17.376Z,895.97
2019-05-01T23:23:21.370Z,772.87
2019-05-01T23:28:25.817Z,851.17
2019-05-01T23:33:29.777Z,794.13
2019-05-01T23:38:34.165Z,802.70
2019-05-01T23:43:37.893Z,923.40
2019-05-01T23:48:41.602Z,950.20
2019-05-01T23:53:48.175Z,971.50
2019-05-01T23:58:51.270Z,978.97
